Time,TemperatureF,DewpointF,PressureIn,WindDirection,WindDirectionDegrees,WindSpeedMPH,WindSpeedGustMPH,Humidity,HourlyPrecipIn,Conditions,Clouds,dailyrainin,SoftwareType,DateUTC
2013-01-25 00:03:00,35.2,19.2,30.36,East,98,6.4,6.4,39,0.00,,,0.00,dv,2013-01-25 05:03:00,
2013-01-25 00:05:00,35.1,19.1,30.37,ENE,76,9.7,9.7,39,0.00,,,0.00,dv,2013-01-25 05:05:00,
2013-01-25 00:10:00,34.8,18.8,30.37,East,82,9.7,9.7,39,0.00,,,0.00,dv,2013-01-25 05:10:00,
2013-01-25 00:15:00,34.5,18.1,30.37,East,84,12.9,12.9,38,0.00,,,0.00,dv,2013-01-25 05:15:00,
2013-01-25 00:20:00,34.3,18.0,30.38,East,81,8.1,8.1,38,0.00,,,0.00,dv,2013-01-25 05:20:00,
2013-01-25 00:25:00,34.1,18.2,30.38,East,89,9.7,9.7,39,0.00,,,0.00,dv,2013-01-25 05:25:00,
2013-01-25 00:30:00,34.0,17.3,30.38,SE,146,11.3,11.3,37,0.00,,,0.00,dv,2013-01-25 05:30:00,
2013-01-25 00:35:00,33.9,17.2,30.37,East,82,6.4,6.4,37,0.00,,,0.00,dv,2013-01-25 05:35:00,
2013-01-25 00:40:00,33.7,17.0,30.38,ENE,78,6.4,6.4,37,0.00,,,0.00,dv,2013-01-25 05:40:00,
2013-01-25 00:45:00,33.5,16.4,30.38,ENE,61,12.9,12.9,36,0.00,,,0.00,dv,2013-01-25 05:45:00,
2013-01-25 00:50:00,33.4,16.7,30.38,East,89,4.8,4.8,37,0.00,,,0.00,dv,2013-01-25 05:50:00,
2013-01-25 01:00:00,33.0,15.5,30.38,East,91,14.5,14.5,35,0.00,,,0.00,dv,2013-01-25 06:00:00,
2013-01-25 01:05:00,32.9,15.4,30.39,ENE,73,6.4,6.4,35,0.00,,,0.00,dv,2013-01-25 06:05:00,
2013-01-25 01:10:00,32.6,14.7,30.39,East,81,8.1,8.1,34,0.00,,,0.00,dv,2013-01-25 06:10:00,
2013-01-25 01:15:00,32.5,14.6,30.38,ESE,105,4.8,4.8,34,0.00,,,0.00,dv,2013-01-25 06:15:00,
2013-01-25 01:20:00,32.3,14.5,30.38,East,81,6.4,6.4,34,0.00,,,0.00,dv,2013-01-25 06:20:00,
2013-01-25 01:30:00,32.0,15.1,30.37,East,83,4.8,4.8,36,0.00,,,0.00,dv,2013-01-25 06:30:00,
2013-01-25 01:35:00,31.8,14.9,30.37,NE,44,11.3,11.3,36,0.00,,,0.00,dv,2013-01-25 06:35:00,
2013-01-25 01:40:00,31.6,14.3,30.37,ENE,67,11.3,11.3,35,0.00,,,0.00,dv,2013-01-25 06:40:00,
2013-01-25 01:45:00,31.5,14.2,30.39,ENE,76,6.4,6.4,35,0.00,,,0.00,dv,2013-01-25 06:45:00,
2013-01-25 01:55:00,31.3,14.0,30.40,ENE,78,8.1,8.1,35,0.00,,,0.00,dv,2013-01-25 06:55:00,
2013-01-25 02:05:00,31.2,13.5,30.40,East,87,6.4,6.4,34,0.00,,,0.00,dv,2013-01-25 07:05:00,
2013-01-25 02:10:00,31.2,13.5,30.39,ENE,74,9.7,9.7,34,0.00,,,0.00,dv,2013-01-25 07:10:00,
2013-01-25 02:15:00,31.0,12.9,30.39,ENE,78,9.7,9.7,33,0.00,,,0.00,dv,2013-01-25 07:15:00,
2013-01-25 02:20:00,30.9,13.2,30.38,East,86,8.1,8.1,34,0.00,,,0.00,dv,2013-01-25 07:20:00,
2013-01-25 02:25:00,30.8,13.1,30.38,East,80,11.3,11.3,34,0.00,,,0.00,dv,2013-01-25 07:25:00,
2013-01-25 02:30:00,30.8,13.6,30.38,SE,139,6.4,6.4,35,0.00,,,0.00,dv,2013-01-25 07:30:00,
2013-01-25 02:35:00,30.7,13.9,30.39,East,87,8.1,8.1,36,0.00,,,0.00,dv,2013-01-25 07:35:00,
2013-01-25 02:40:00,30.6,13.0,30.38,East,101,14.5,14.5,34,0.00,,,0.00,dv,2013-01-25 07:40:00,
2013-01-25 02:45:00,30.6,13.4,30.39,East,86,6.4,6.4,35,0.00,,,0.00,dv,2013-01-25 07:45:00,
2013-01-25 02:50:00,30.5,13.3,30.38,ENE,61,6.4,6.4,35,0.00,,,0.00,dv,2013-01-25 07:50:00,
2013-01-25 02:55:00,30.4,12.8,30.38,East,80,3.2,3.2,34,0.00,,,0.00,dv,2013-01-25 07:55:00,
2013-01-25 03:00:00,30.4,13.2,30.38,East,80,4.8,4.8,35,0.00,,,0.00,dv,2013-01-25 08:00:00,
2013-01-25 03:05:00,30.3,13.1,30.38,East,81,9.7,9.7,35,0.00,,,0.00,dv,2013-01-25 08:05:00,
2013-01-25 03:10:00,30.3,13.1,30.38,ENE,75,6.4,6.4,35,0.00,,,0.00,dv,2013-01-25 08:10:00,
2013-01-25 03:15:00,30.2,13.1,30.38,SE,124,8.1,8.1,35,0.00,,,0.00,dv,2013-01-25 08:15:00,
2013-01-25 03:20:00,30.1,13.0,30.39,ENE,74,4.8,4.8,35,0.00,,,0.00,dv,2013-01-25 08:20:00,
2013-01-25 03:30:00,30.1,13.4,30.39,East,85,4.8,4.8,36,0.00,,,0.00,dv,2013-01-25 08:30:00,
2013-01-25 03:35:00,30.1,13.0,30.38,East,82,3.2,3.2,35,0.00,,,0.00,dv,2013-01-25 08:35:00,
2013-01-25 03:40:00,30.2,13.5,30.38,East,86,1.6,1.6,36,0.00,,,0.00,dv,2013-01-25 08:40:00,
2013-01-25 03:45:00,30.2,12.6,30.38,East,83,6.4,6.4,34,0.00,,,0.00,dv,2013-01-25 08:45:00,
2013-01-25 03:50:00,30.0,12.0,30.37,ENE,78,11.3,11.3,33,0.00,,,0.00,dv,2013-01-25 08:50:00,
2013-01-25 03:55:00,29.9,12.4,30.37,ENE,77,4.8,4.8,34,0.00,,,0.00,dv,2013-01-25 08:55:00,
2013-01-25 04:00:00,29.8,11.8,30.36,ENE,72,9.7,9.7,33,0.00,,,0.00,dv,2013-01-25 09:00:00,
2013-01-25 04:05:00,29.8,12.3,30.37,East,93,8.1,8.1,34,0.00,,,0.00,dv,2013-01-25 09:05:00,
2013-01-25 04:10:00,29.8,12.7,30.36,East,84,6.4,6.4,35,0.00,,,0.00,dv,2013-01-25 09:10:00,
2013-01-25 04:15:00,29.8,12.7,30.37,ENE,70,4.8,4.8,35,0.00,,,0.00,dv,2013-01-25 09:15:00,
2013-01-25 04:20:00,29.9,13.2,30.36,ENE,64,3.2,3.2,36,0.00,,,0.00,dv,2013-01-25 09:20:00,
2013-01-25 04:25:00,29.9,13.2,30.35,ESE,102,3.2,3.2,36,0.00,,,0.00,dv,2013-01-25 09:25:00,
2013-01-25 04:30:00,29.8,12.7,30.35,ENE,77,6.4,6.4,35,0.00,,,0.00,dv,2013-01-25 09:30:00,
2013-01-25 04:35:00,29.8,12.7,30.35,East,88,9.7,9.7,35,0.00,,,0.00,dv,2013-01-25 09:35:00,
2013-01-25 04:40:00,29.7,12.6,30.35,East,83,4.8,4.8,35,0.00,,,0.00,dv,2013-01-25 09:40:00,
2013-01-25 04:45:00,29.6,12.5,30.35,East,79,8.1,8.1,35,0.00,,,0.00,dv,2013-01-25 09:45:00,
2013-01-25 04:50:00,29.6,13.4,30.34,East,79,4.8,4.8,37,0.00,,,0.00,dv,2013-01-25 09:50:00,
2013-01-25 04:55:00,29.5,12.4,30.34,ESE,106,6.4,6.4,35,0.00,,,0.00,dv,2013-01-25 09:55:00,
2013-01-25 05:00:00,29.5,12.9,30.34,East,90,8.1,8.1,36,0.00,,,0.00,dv,2013-01-25 10:00:00,
2013-01-25 05:05:00,29.4,12.8,30.34,ENE,59,6.4,6.4,36,0.00,,,0.00,dv,2013-01-25 10:05:00,
2013-01-25 05:10:00,29.4,13.2,30.35,East,81,3.2,3.2,37,0.00,,,0.00,dv,2013-01-25 10:10:00,
2013-01-25 05:15:00,29.4,12.4,30.33,East,85,6.4,6.4,35,0.00,,,0.00,dv,2013-01-25 10:15:00,
2013-01-25 05:20:00,29.3,12.3,30.33,ENE,61,6.4,6.4,35,0.00,,,0.00,dv,2013-01-25 10:20:00,
2013-01-25 05:25:00,29.3,12.7,30.34,ENE,78,4.8,4.8,36,0.00,,,0.00,dv,2013-01-25 10:25:00,
2013-01-25 05:30:00,29.2,12.6,30.34,SSE,159,4.8,4.8,36,0.00,,,0.00,dv,2013-01-25 10:30:00,
2013-01-25 05:35:00,29.2,12.6,30.34,East,79,9.7,9.7,36,0.00,,,0.00,dv,2013-01-25 10:35:00,
2013-01-25 05:45:00,29.2,12.6,30.34,East,85,3.2,3.2,36,0.00,,,0.00,dv,2013-01-25 10:45:00,
2013-01-25 05:50:00,29.2,12.6,30.33,South,187,3.2,3.2,36,0.00,,,0.00,dv,2013-01-25 10:50:00,
2013-01-25 05:55:00,29.1,12.1,30.33,East,81,3.2,3.2,35,0.00,,,0.00,dv,2013-01-25 10:55:00,
2013-01-25 06:00:00,29.1,12.1,30.33,ENE,71,6.4,6.4,35,0.00,,,0.00,dv,2013-01-25 11:00:00,
2013-01-25 06:05:00,29.1,12.1,30.33,East,81,3.2,3.2,35,0.00,,,0.00,dv,2013-01-25 11:05:00,
2013-01-25 06:10:00,29.1,12.9,30.34,East,81,3.2,3.2,37,0.00,,,0.00,dv,2013-01-25 11:10:00,
2013-01-25 06:15:00,29.2,12.6,30.33,ESE,115,3.2,3.2,36,0.00,,,0.00,dv,2013-01-25 11:15:00,
2013-01-25 06:20:00,29.2,13.0,30.34,ENE,75,3.2,3.2,37,0.00,,,0.00,dv,2013-01-25 11:20:00,
2013-01-25 06:25:00,29.2,11.7,30.33,East,84,8.1,8.1,34,0.00,,,0.00,dv,2013-01-25 11:25:00,
2013-01-25 06:30:00,29.1,12.1,30.33,SE,127,6.4,6.4,35,0.00,,,0.00,dv,2013-01-25 11:30:00,
2013-01-25 06:35:00,29.1,12.5,30.33,East,83,8.1,8.1,36,0.00,,,0.00,dv,2013-01-25 11:35:00,
2013-01-25 06:40:00,29.0,12.0,30.33,East,81,6.4,6.4,35,0.00,,,0.00,dv,2013-01-25 11:40:00,
2013-01-25 06:45:00,28.9,12.3,30.33,ENE,77,8.1,8.1,36,0.00,,,0.00,dv,2013-01-25 11:45:00,
2013-01-25 06:50:00,28.9,11.9,30.34,ENE,77,4.8,4.8,35,0.00,,,0.00,dv,2013-01-25 11:50:00,
2013-01-25 07:00:00,29.0,12.9,30.34,ENE,77,1.6,1.6,37,0.00,,,0.00,dv,2013-01-25 12:00:00,
2013-01-25 07:05:00,29.2,13.0,30.33,ENE,74,1.6,1.6,37,0.00,,,0.00,dv,2013-01-25 12:05:00,
2013-01-25 07:10:00,29.3,12.7,30.34,ENE,74,3.2,3.2,36,0.00,,,0.00,dv,2013-01-25 12:10:00,
2013-01-25 07:15:00,29.3,12.3,30.33,East,93,4.8,4.8,35,0.00,,,0.00,dv,2013-01-25 12:15:00,
2013-01-25 07:20:00,29.2,12.6,30.34,ENE,75,3.2,3.2,36,0.00,,,0.00,dv,2013-01-25 12:20:00,
2013-01-25 07:25:00,29.2,12.6,30.33,SE,138,4.8,4.8,36,0.00,,,0.00,dv,2013-01-25 12:25:00,
2013-01-25 07:30:00,29.2,13.4,30.34,SSE,156,1.6,1.6,38,0.00,,,0.00,dv,2013-01-25 12:30:00,
2013-01-25 07:35:00,29.2,13.8,30.33,East,84,3.2,3.2,39,0.00,,,0.00,dv,2013-01-25 12:35:00,
2013-01-25 07:40:00,29.0,14.4,30.34,East,83,9.7,9.7,41,0.00,,,0.00,dv,2013-01-25 12:40:00,
2013-01-25 07:45:00,28.9,14.7,30.33,East,80,1.6,1.6,42,0.00,,,0.00,dv,2013-01-25 12:45:00,
2013-01-25 07:50:00,28.8,14.6,30.33,East,80,4.8,4.8,42,0.00,,,0.00,dv,2013-01-25 12:50:00,
2013-01-25 07:55:00,28.8,13.9,30.33,East,80,3.2,3.2,40,0.00,,,0.00,dv,2013-01-25 12:55:00,
2013-01-25 08:00:00,28.8,13.9,30.33,East,83,3.2,3.2,40,0.00,,,0.00,dv,2013-01-25 13:00:00,
2013-01-25 08:05:00,28.7,13.8,30.32,ENE,67,4.8,4.8,40,0.00,,,0.00,dv,2013-01-25 13:05:00,
2013-01-25 08:10:00,28.7,14.2,30.33,East,81,4.8,4.8,41,0.00,,,0.00,dv,2013-01-25 13:10:00,
2013-01-25 08:15:00,28.7,14.5,30.33,East,81,3.2,3.2,42,0.00,,,0.00,dv,2013-01-25 13:15:00,
2013-01-25 08:20:00,28.8,14.2,30.32,East,88,3.2,3.2,41,0.00,,,0.00,dv,2013-01-25 13:20:00,
2013-01-25 08:25:00,28.7,14.2,30.33,ESE,103,6.4,6.4,41,0.00,,,0.00,dv,2013-01-25 13:25:00,
2013-01-25 08:30:00,28.7,14.5,30.33,ENE,72,4.8,4.8,42,0.00,,,0.00,dv,2013-01-25 13:30:00,
2013-01-25 08:35:00,28.7,13.8,30.33,ENE,78,3.2,3.2,40,0.00,,,0.00,dv,2013-01-25 13:35:00,
2013-01-25 08:40:00,28.6,13.7,30.32,East,81,4.8,4.8,40,0.00,,,0.00,dv,2013-01-25 13:40:00,
2013-01-25 08:45:00,28.6,14.1,30.32,East,90,3.2,3.2,41,0.00,,,0.00,dv,2013-01-25 13:45:00,
2013-01-25 08:50:00,28.6,14.4,30.32,East,80,1.6,1.6,42,0.00,,,0.00,dv,2013-01-25 13:50:00,
2013-01-25 08:55:00,28.6,14.4,30.32,East,80,3.2,3.2,42,0.00,,,0.00,dv,2013-01-25 13:55:00,
2013-01-25 09:00:00,28.6,16.8,30.32,East,80,3.2,3.2,49,0.00,,,0.00,dv,2013-01-25 14:00:00,
2013-01-25 09:05:00,28.5,18.6,30.32,East,80,3.2,3.2,55,0.00,,,0.00,dv,2013-01-25 14:05:00,
2013-01-25 09:10:00,28.4,19.1,30.32,East,85,4.8,4.8,57,0.00,,,0.00,dv,2013-01-25 14:10:00,
2013-01-25 09:15:00,28.2,18.9,30.31,East,85,3.2,3.2,57,0.00,,,0.00,dv,2013-01-25 14:15:00,
2013-01-25 09:20:00,28.0,19.0,30.32,ENE,72,3.2,3.2,58,0.00,,,0.00,dv,2013-01-25 14:20:00,
2013-01-25 09:25:00,27.9,18.6,30.32,ENE,72,6.4,6.4,57,0.00,,,0.00,dv,2013-01-25 14:25:00,
2013-01-25 09:30:00,27.8,17.6,30.32,East,100,8.1,8.1,54,0.00,,,0.00,dv,2013-01-25 14:30:00,
2013-01-25 09:40:00,27.6,18.3,30.30,East,86,3.2,3.2,57,0.00,,,0.00,dv,2013-01-25 14:40:00,
2013-01-25 09:45:00,27.5,18.2,30.31,ENE,76,4.8,4.8,57,0.00,,,0.00,dv,2013-01-25 14:45:00,
2013-01-25 09:50:00,27.4,18.4,30.31,ENE,75,4.8,4.8,58,0.00,,,0.00,dv,2013-01-25 14:50:00,
2013-01-25 09:55:00,27.3,18.6,30.30,ENE,73,1.6,1.6,59,0.00,,,0.00,dv,2013-01-25 14:55:00,
2013-01-25 10:00:00,27.4,19.2,30.31,ENE,74,1.6,1.6,61,0.00,,,0.00,dv,2013-01-25 15:00:00,
2013-01-25 10:05:00,27.3,18.6,30.31,ENE,74,1.6,1.6,59,0.00,,,0.00,dv,2013-01-25 15:05:00,
2013-01-25 10:10:00,27.4,19.0,30.31,ENE,74,3.2,3.2,60,0.00,,,0.00,dv,2013-01-25 15:10:00,
2013-01-25 10:15:00,27.4,19.7,30.30,East,96,1.6,1.6,63,0.00,,,0.00,dv,2013-01-25 15:15:00,
2013-01-25 10:20:00,27.6,20.2,30.31,East,80,1.6,1.6,64,0.00,,,0.00,dv,2013-01-25 15:20:00,
2013-01-25 10:25:00,27.3,19.1,30.30,East,82,4.8,4.8,61,0.00,,,0.00,dv,2013-01-25 15:25:00,
2013-01-25 10:30:00,27.2,19.8,30.31,East,82,0.0,0.0,64,0.00,,,0.00,dv,2013-01-25 15:30:00,
2013-01-25 10:35:00,27.3,20.1,30.30,East,82,1.6,1.6,65,0.00,,,0.00,dv,2013-01-25 15:35:00,
2013-01-25 10:40:00,27.2,19.8,30.30,East,81,3.2,3.2,64,0.00,,,0.00,dv,2013-01-25 15:40:00,
2013-01-25 10:45:00,27.2,20.1,30.30,East,82,1.6,1.6,65,0.00,,,0.00,dv,2013-01-25 15:45:00,
2013-01-25 10:50:00,27.3,19.9,30.29,ENE,73,3.2,3.2,64,0.00,,,0.00,dv,2013-01-25 15:50:00,
2013-01-25 10:55:00,27.4,20.2,30.29,ENE,75,3.2,3.2,65,0.00,,,0.00,dv,2013-01-25 15:55:00,
2013-01-25 11:00:00,27.4,19.5,30.30,ENE,78,3.2,3.2,62,0.00,,,0.00,dv,2013-01-25 16:00:00,
2013-01-25 11:05:00,27.3,19.6,30.28,SW,218,3.2,3.2,63,0.00,,,0.00,dv,2013-01-25 16:05:00,
2013-01-25 11:10:00,27.4,19.7,30.28,ENE,78,3.2,3.2,63,0.00,,,0.00,dv,2013-01-25 16:10:00,
2013-01-25 11:15:00,27.3,19.1,30.28,ENE,78,4.8,4.8,61,0.00,,,0.00,dv,2013-01-25 16:15:00,
2013-01-25 11:20:00,27.3,19.6,30.27,East,82,3.2,3.2,63,0.00,,,0.00,dv,2013-01-25 16:20:00,
2013-01-25 11:25:00,27.3,19.9,30.29,East,94,4.8,4.8,64,0.00,,,0.00,dv,2013-01-25 16:25:00,
2013-01-25 11:30:00,27.4,19.5,30.29,East,94,1.6,1.6,62,0.00,,,0.00,dv,2013-01-25 16:30:00,
2013-01-25 11:35:00,27.4,19.5,30.28,East,94,1.6,1.6,62,0.00,,,0.00,dv,2013-01-25 16:35:00,
2013-01-25 11:40:00,27.5,19.6,30.28,East,80,6.4,6.4,62,0.00,,,0.00,dv,2013-01-25 16:40:00,
2013-01-25 11:45:00,27.5,19.8,30.27,East,80,0.0,0.0,63,0.00,,,0.00,dv,2013-01-25 16:45:00,
2013-01-25 11:50:00,27.6,19.7,30.27,East,80,1.6,1.6,62,0.00,,,0.00,dv,2013-01-25 16:50:00,
2013-01-25 12:00:00,27.6,19.7,30.26,East,80,3.2,3.2,62,0.00,,,0.00,dv,2013-01-25 17:00:00,
2013-01-25 12:05:00,27.5,19.6,30.26,East,80,3.2,3.2,62,0.00,,,0.00,dv,2013-01-25 17:05:00,
2013-01-25 12:10:00,27.4,19.5,30.25,East,80,3.2,3.2,62,0.00,,,0.00,dv,2013-01-25 17:10:00,
2013-01-25 12:15:00,27.4,19.5,30.24,East,82,4.8,4.8,62,0.00,,,0.00,dv,2013-01-25 17:15:00,
2013-01-25 12:20:00,27.4,19.5,30.24,East,90,6.4,6.4,62,0.00,,,0.00,dv,2013-01-25 17:20:00,
2013-01-25 12:25:00,27.4,19.7,30.23,East,93,3.2,3.2,63,0.00,,,0.00,dv,2013-01-25 17:25:00,
2013-01-25 12:30:00,27.4,19.7,30.23,East,93,1.6,1.6,63,0.00,,,0.00,dv,2013-01-25 17:30:00,
2013-01-25 12:40:00,27.5,20.1,30.22,East,94,0.0,0.0,64,0.00,,,0.00,dv,2013-01-25 17:40:00,
2013-01-25 12:45:00,27.6,19.7,30.22,East,93,1.6,1.6,62,0.00,,,0.00,dv,2013-01-25 17:45:00,
2013-01-25 12:55:00,27.5,20.1,30.21,East,93,1.6,1.6,64,0.00,,,0.00,dv,2013-01-25 17:55:00,
2013-01-25 13:00:00,27.5,20.1,30.21,East,94,3.2,3.2,64,0.00,,,0.00,dv,2013-01-25 18:00:00,
2013-01-25 13:05:00,27.6,20.7,30.19,East,94,1.6,1.6,66,0.00,,,0.00,dv,2013-01-25 18:05:00,
2013-01-25 13:10:00,27.7,20.5,30.19,East,93,1.6,1.6,65,0.00,,,0.00,dv,2013-01-25 18:10:00,
2013-01-25 13:15:00,27.7,20.8,30.19,East,93,1.6,1.6,66,0.00,,,0.00,dv,2013-01-25 18:15:00,
2013-01-25 13:20:00,27.7,20.8,30.19,East,93,1.6,1.6,66,0.00,,,0.00,dv,2013-01-25 18:20:00,
2013-01-25 13:25:00,27.7,20.8,30.19,East,94,1.6,1.6,66,0.00,,,0.00,dv,2013-01-25 18:25:00,
2013-01-25 13:30:00,27.7,21.0,30.19,East,93,1.6,1.6,67,0.00,,,0.00,dv,2013-01-25 18:30:00,
2013-01-25 13:40:00,27.6,21.2,30.18,East,93,1.6,1.6,68,0.00,,,0.00,dv,2013-01-25 18:40:00,
2013-01-25 13:45:00,27.7,21.3,30.17,East,93,1.6,1.6,68,0.00,,,0.00,dv,2013-01-25 18:45:00,
2013-01-25 13:50:00,27.7,21.7,30.16,East,93,1.6,1.6,70,0.00,,,0.00,dv,2013-01-25 18:50:00,
2013-01-25 13:55:00,27.8,22.1,30.16,East,93,0.0,0.0,71,0.00,,,0.00,dv,2013-01-25 18:55:00,
2013-01-25 14:00:00,27.8,21.8,30.20,East,93,1.6,1.6,70,0.00,,,0.00,dv,2013-01-25 19:00:00,
2013-01-25 14:05:00,27.7,21.5,30.21,East,93,3.2,3.2,69,0.00,,,0.00,dv,2013-01-25 19:05:00,
2013-01-25 14:10:00,27.7,22.2,30.22,NE,51,3.2,3.2,72,0.00,,,0.00,dv,2013-01-25 19:10:00,
2013-01-25 14:15:00,27.5,22.0,30.20,ENE,71,3.2,3.2,72,0.00,,,0.00,dv,2013-01-25 19:15:00,
2013-01-25 14:20:00,27.4,22.4,30.18,ENE,71,3.2,3.2,74,0.00,,,0.00,dv,2013-01-25 19:20:00,
2013-01-25 14:25:00,27.4,22.6,30.18,ENE,71,1.6,1.6,75,0.00,,,0.00,dv,2013-01-25 19:25:00,
2013-01-25 14:30:00,27.6,23.2,30.16,ENE,71,0.0,0.0,77,0.00,,,0.00,dv,2013-01-25 19:30:00,
2013-01-25 14:35:00,27.7,23.3,30.16,ENE,71,0.0,0.0,77,0.00,,,0.00,dv,2013-01-25 19:35:00,
2013-01-25 14:45:00,27.5,22.9,30.15,ENE,78,4.8,4.8,76,0.00,,,0.00,dv,2013-01-25 19:45:00,
2013-01-25 14:50:00,27.5,22.9,30.15,ENE,78,0.0,0.0,76,0.00,,,0.00,dv,2013-01-25 19:50:00,
2013-01-25 14:55:00,27.5,23.1,30.15,East,79,0.0,0.0,77,0.00,,,0.00,dv,2013-01-25 19:55:00,
2013-01-25 15:00:00,27.6,23.4,30.15,East,79,0.0,0.0,78,0.00,,,0.00,dv,2013-01-25 20:00:00,
2013-01-25 15:05:00,27.6,23.6,30.15,ENE,78,0.0,0.0,79,0.00,,,0.00,dv,2013-01-25 20:05:00,
2013-01-25 15:10:00,27.7,23.5,30.15,East,79,1.6,1.6,78,0.00,,,0.00,dv,2013-01-25 20:10:00,
2013-01-25 15:15:00,27.7,23.5,30.15,East,79,0.0,0.0,78,0.00,,,0.00,dv,2013-01-25 20:15:00,
2013-01-25 15:20:00,27.7,23.3,30.14,East,79,1.6,1.6,77,0.00,,,0.00,dv,2013-01-25 20:20:00,
2013-01-25 15:25:00,27.5,23.1,30.14,ENE,78,0.0,0.0,77,0.00,,,0.00,dv,2013-01-25 20:25:00,
2013-01-25 15:30:00,27.6,23.4,30.14,ENE,78,0.0,0.0,78,0.00,,,0.00,dv,2013-01-25 20:30:00,
2013-01-25 15:35:00,27.6,23.4,30.14,East,79,0.0,0.0,78,0.00,,,0.00,dv,2013-01-25 20:35:00,
2013-01-25 15:40:00,27.8,23.8,30.14,ENE,78,0.0,0.0,79,0.00,,,0.00,dv,2013-01-25 20:40:00,
2013-01-25 15:45:00,27.9,23.9,30.13,East,79,1.6,1.6,79,0.00,,,0.00,dv,2013-01-25 20:45:00,
2013-01-25 15:50:00,28.0,24.0,30.12,East,79,1.6,1.6,79,0.00,,,0.00,dv,2013-01-25 20:50:00,
2013-01-25 15:55:00,28.0,24.0,30.12,East,79,0.0,0.0,79,0.00,,,0.00,dv,2013-01-25 20:55:00,
2013-01-25 16:00:00,28.1,24.1,30.12,East,79,0.0,0.0,79,0.00,,,0.00,dv,2013-01-25 21:00:00,
2013-01-25 16:05:00,28.1,24.1,30.12,East,79,0.0,0.0,79,0.00,,,0.00,dv,2013-01-25 21:05:00,
2013-01-25 16:10:00,28.1,23.9,30.12,East,79,0.0,0.0,78,0.00,,,0.00,dv,2013-01-25 21:10:00,
2013-01-25 16:15:00,28.1,24.1,30.12,ENE,78,1.6,1.6,79,0.00,,,0.00,dv,2013-01-25 21:15:00,
2013-01-25 16:20:00,28.1,24.1,30.12,East,79,1.6,1.6,79,0.00,,,0.00,dv,2013-01-25 21:20:00,
2013-01-25 16:25:00,28.1,23.9,30.11,East,79,0.0,0.0,78,0.00,,,0.00,dv,2013-01-25 21:25:00,
2013-01-25 16:35:00,28.3,24.3,30.11,ENE,78,1.6,1.6,79,0.00,,,0.00,dv,2013-01-25 21:35:00,
2013-01-25 16:40:00,28.4,24.6,30.10,East,79,0.0,0.0,80,0.00,,,0.00,dv,2013-01-25 21:40:00,
2013-01-25 16:45:00,28.5,24.7,30.11,East,79,0.0,0.0,80,0.00,,,0.00,dv,2013-01-25 21:45:00,
2013-01-25 16:50:00,28.5,24.5,30.11,ENE,78,1.6,1.6,79,0.00,,,0.00,dv,2013-01-25 21:50:00,
2013-01-25 16:55:00,28.6,24.6,30.10,East,79,0.0,0.0,79,0.00,,,0.00,dv,2013-01-25 21:55:00,
2013-01-25 17:00:00,28.6,24.6,30.11,ENE,78,0.0,0.0,79,0.00,,,0.00,dv,2013-01-25 22:00:00,
2013-01-25 17:05:00,28.7,24.7,30.11,East,79,0.0,0.0,79,0.00,,,0.00,dv,2013-01-25 22:05:00,
2013-01-25 17:10:00,28.6,24.6,30.11,East,79,0.0,0.0,79,0.00,,,0.00,dv,2013-01-25 22:10:00,
2013-01-25 17:15:00,28.7,24.7,30.11,East,79,0.0,0.0,79,0.00,,,0.00,dv,2013-01-25 22:15:00,
2013-01-25 17:20:00,28.7,24.9,30.11,East,79,0.0,0.0,80,0.00,,,0.00,dv,2013-01-25 22:20:00,
2013-01-25 17:25:00,28.7,24.7,30.11,East,79,0.0,0.0,79,0.00,,,0.00,dv,2013-01-25 22:25:00,
2013-01-25 17:30:00,28.8,25.0,30.11,ENE,78,0.0,0.0,80,0.00,,,0.00,dv,2013-01-25 22:30:00,
2013-01-25 17:35:00,28.9,25.1,30.11,East,79,0.0,0.0,80,0.00,,,0.00,dv,2013-01-25 22:35:00,
2013-01-25 17:40:00,29.0,25.2,30.11,East,79,0.0,0.0,80,0.00,,,0.00,dv,2013-01-25 22:40:00,
2013-01-25 17:45:00,29.0,25.2,30.11,ENE,78,0.0,0.0,80,0.00,,,0.00,dv,2013-01-25 22:45:00,
2013-01-25 17:50:00,28.9,24.9,30.11,East,79,3.2,3.2,79,0.00,,,0.00,dv,2013-01-25 22:50:00,
2013-01-25 17:55:00,28.9,24.9,30.11,ENE,78,0.0,0.0,79,0.00,,,0.00,dv,2013-01-25 22:55:00,
2013-01-25 18:00:00,28.9,25.1,30.11,East,79,0.0,0.0,80,0.00,,,0.00,dv,2013-01-25 23:00:00,
2013-01-25 18:05:00,29.0,25.2,30.11,East,79,0.0,0.0,80,0.00,,,0.00,dv,2013-01-25 23:05:00,
2013-01-25 18:10:00,29.0,25.2,30.11,East,79,0.0,0.0,80,0.00,,,0.00,dv,2013-01-25 23:10:00,
2013-01-25 18:15:00,29.2,25.6,30.10,East,79,0.0,0.0,81,0.00,,,0.00,dv,2013-01-25 23:15:00,
2013-01-25 18:20:00,29.4,26.0,30.11,East,79,0.0,0.0,82,0.00,,,0.00,dv,2013-01-25 23:20:00,
2013-01-25 18:25:00,29.5,25.9,30.11,ENE,78,0.0,0.0,81,0.00,,,0.00,dv,2013-01-25 23:25:00,
2013-01-25 18:30:00,29.5,25.7,30.11,ENE,78,0.0,0.0,80,0.00,,,0.00,dv,2013-01-25 23:30:00,
2013-01-25 18:35:00,29.5,25.7,30.10,East,79,0.0,0.0,80,0.00,,,0.00,dv,2013-01-25 23:35:00,
2013-01-25 18:40:00,29.6,26.0,30.10,East,79,0.0,0.0,81,0.00,,,0.00,dv,2013-01-25 23:40:00,
2013-01-25 18:45:00,29.6,26.0,30.10,ENE,78,0.0,0.0,81,0.00,,,0.00,dv,2013-01-25 23:45:00,
2013-01-25 18:50:00,29.8,26.4,30.10,East,79,0.0,0.0,82,0.00,,,0.00,dv,2013-01-25 23:50:00,
2013-01-25 18:55:00,30.0,26.6,30.09,East,79,0.0,0.0,82,0.00,,,0.00,dv,2013-01-25 23:55:00,
2013-01-25 19:00:00,30.0,26.6,30.10,East,79,0.0,0.0,82,0.00,,,0.00,dv,2013-01-26 00:00:00,
2013-01-25 19:05:00,30.1,26.7,30.10,ENE,78,0.0,0.0,82,0.00,,,0.00,dv,2013-01-26 00:05:00,
2013-01-25 19:10:00,30.2,26.8,30.09,East,79,0.0,0.0,82,0.00,,,0.00,dv,2013-01-26 00:10:00,
2013-01-25 19:15:00,30.3,26.9,30.10,East,79,0.0,0.0,82,0.00,,,0.00,dv,2013-01-26 00:15:00,
2013-01-25 19:20:00,30.3,27.1,30.10,ENE,78,0.0,0.0,83,0.00,,,0.00,dv,2013-01-26 00:20:00,
2013-01-25 19:25:00,30.3,27.1,30.10,East,79,0.0,0.0,83,0.00,,,0.00,dv,2013-01-26 00:25:00,
2013-01-25 19:30:00,30.4,27.2,30.10,East,79,1.6,1.6,83,0.00,,,0.00,dv,2013-01-26 00:30:00,
2013-01-25 19:35:00,30.5,27.3,30.10,East,79,1.6,1.6,83,0.00,,,0.00,dv,2013-01-26 00:35:00,
2013-01-25 19:40:00,30.6,27.4,30.09,East,79,3.2,3.2,83,0.00,,,0.00,dv,2013-01-26 00:40:00,
2013-01-25 19:45:00,30.7,27.7,30.09,East,79,1.6,1.6,84,0.00,,,0.00,dv,2013-01-26 00:45:00,
2013-01-25 19:50:00,30.8,27.8,30.09,East,79,1.6,1.6,84,0.00,,,0.00,dv,2013-01-26 00:50:00,
2013-01-25 19:55:00,30.8,27.8,30.09,ENE,78,1.6,1.6,84,0.00,,,0.00,dv,2013-01-26 00:55:00,
2013-01-25 20:00:00,30.9,27.9,30.09,East,79,3.2,3.2,84,0.00,,,0.00,dv,2013-01-26 01:00:00,
2013-01-25 20:05:00,30.8,27.6,30.09,East,79,0.0,0.0,83,0.00,,,0.00,dv,2013-01-26 01:05:00,
2013-01-25 20:10:00,30.9,27.9,30.09,East,79,0.0,0.0,84,0.00,,,0.00,dv,2013-01-26 01:10:00,
2013-01-25 20:15:00,31.0,28.0,30.10,East,79,1.6,1.6,84,0.00,,,0.00,dv,2013-01-26 01:15:00,
2013-01-25 20:20:00,31.0,28.2,30.09,East,79,3.2,3.2,85,0.00,,,0.00,dv,2013-01-26 01:20:00,
2013-01-25 20:25:00,31.1,28.3,30.09,East,79,0.0,0.0,85,0.00,,,0.00,dv,2013-01-26 01:25:00,
2013-01-25 20:30:00,31.2,28.4,30.09,East,79,1.6,1.6,85,0.00,,,0.00,dv,2013-01-26 01:30:00,
2013-01-25 20:35:00,31.2,28.4,30.09,East,79,1.6,1.6,85,0.00,,,0.00,dv,2013-01-26 01:35:00,
2013-01-25 20:45:00,31.4,28.6,30.09,East,79,0.0,0.0,85,0.00,,,0.00,dv,2013-01-26 01:45:00,
2013-01-25 20:50:00,31.6,28.8,30.08,East,79,0.0,0.0,85,0.00,,,0.00,dv,2013-01-26 01:50:00,
2013-01-25 20:55:00,31.6,29.0,30.09,East,79,1.6,1.6,86,0.00,,,0.00,dv,2013-01-26 01:55:00,
2013-01-25 21:00:00,31.7,29.1,30.09,East,79,1.6,1.6,86,0.00,,,0.00,dv,2013-01-26 02:00:00,
2013-01-25 21:05:00,31.8,29.2,30.08,East,79,0.0,0.0,86,0.00,,,0.00,dv,2013-01-26 02:05:00,
2013-01-25 21:10:00,31.8,29.2,30.07,East,79,0.0,0.0,86,0.00,,,0.00,dv,2013-01-26 02:10:00,
2013-01-25 21:15:00,31.9,29.5,30.07,East,79,0.0,0.0,87,0.00,,,0.00,dv,2013-01-26 02:15:00,
2013-01-25 21:20:00,32.0,29.6,30.08,East,79,1.6,1.6,87,0.00,,,0.00,dv,2013-01-26 02:20:00,
2013-01-25 21:25:00,32.1,29.7,30.08,East,79,1.6,1.6,87,0.00,,,0.00,dv,2013-01-26 02:25:00,
2013-01-25 21:30:00,32.2,29.8,30.08,SW,219,3.2,3.2,87,0.00,,,0.00,dv,2013-01-26 02:30:00,
2013-01-25 21:35:00,32.3,29.9,30.08,SW,226,3.2,3.2,87,0.00,,,0.00,dv,2013-01-26 02:35:00,
2013-01-25 21:40:00,32.3,29.9,30.08,SW,226,1.6,1.6,87,0.00,,,0.00,dv,2013-01-26 02:40:00,
2013-01-25 21:45:00,32.4,30.2,30.08,NW,309,1.6,1.6,88,0.00,,,0.00,dv,2013-01-26 02:45:00,
2013-01-25 21:50:00,32.5,30.3,30.08,NW,309,1.6,1.6,88,0.00,,,0.00,dv,2013-01-26 02:50:00,
2013-01-25 21:55:00,32.6,30.4,30.09,WSW,246,3.2,3.2,88,0.00,,,0.00,dv,2013-01-26 02:55:00,
2013-01-25 22:00:00,32.8,30.6,30.08,WSW,248,4.8,4.8,88,0.00,,,0.00,dv,2013-01-26 03:00:00,
2013-01-25 22:05:00,33.0,30.7,30.08,NW,311,3.2,3.2,88,0.00,,,0.00,dv,2013-01-26 03:05:00,
2013-01-25 22:10:00,33.2,30.9,30.08,NW,311,1.6,1.6,88,0.00,,,0.00,dv,2013-01-26 03:10:00,
2013-01-25 22:15:00,33.3,31.0,30.08,North,356,1.6,1.6,88,0.00,,,0.00,dv,2013-01-26 03:15:00,
2013-01-25 22:20:00,33.5,31.4,30.08,North,350,1.6,1.6,89,0.00,,,0.00,dv,2013-01-26 03:20:00,
2013-01-25 22:25:00,33.6,31.5,30.08,North,350,1.6,1.6,89,0.00,,,0.00,dv,2013-01-26 03:25:00,
2013-01-25 22:30:00,33.7,31.6,30.07,NNW,348,1.6,1.6,89,0.00,,,0.00,dv,2013-01-26 03:30:00,
2013-01-25 22:35:00,33.8,31.7,30.08,NNW,348,1.6,1.6,89,0.00,,,0.00,dv,2013-01-26 03:35:00,
2013-01-25 22:40:00,33.9,31.8,30.07,NNW,348,1.6,1.6,89,0.00,,,0.00,dv,2013-01-26 03:40:00,
2013-01-25 22:45:00,34.0,31.9,30.08,NNW,347,1.6,1.6,89,0.00,,,0.00,dv,2013-01-26 03:45:00,
2013-01-25 22:50:00,34.2,32.1,30.07,NNW,347,0.0,0.0,89,0.00,,,0.00,dv,2013-01-26 03:50:00,
2013-01-25 22:55:00,34.2,32.1,30.07,NNW,347,1.6,1.6,89,0.00,,,0.00,dv,2013-01-26 03:55:00,
2013-01-25 23:00:00,34.3,32.2,30.08,North,6,0.0,0.0,89,0.00,,,0.00,dv,2013-01-26 04:00:00,
2013-01-25 23:05:00,34.4,32.3,30.07,SW,221,1.6,1.6,89,0.00,,,0.00,dv,2013-01-26 04:05:00,
2013-01-25 23:10:00,34.5,32.4,30.07,SW,221,1.6,1.6,89,0.00,,,0.00,dv,2013-01-26 04:10:00,
2013-01-25 23:15:00,34.6,32.5,30.07,SW,221,0.0,0.0,89,0.00,,,0.00,dv,2013-01-26 04:15:00,
2013-01-25 23:20:00,34.7,32.6,30.07,SW,221,1.6,1.6,89,0.00,,,0.00,dv,2013-01-26 04:20:00,
2013-01-25 23:25:00,34.9,33.0,30.07,SW,221,1.6,1.6,90,0.00,,,0.00,dv,2013-01-26 04:25:00,
2013-01-25 23:30:00,35.0,33.1,30.07,SW,220,0.0,0.0,90,0.00,,,0.00,dv,2013-01-26 04:30:00,
2013-01-25 23:35:00,35.2,33.3,30.07,SW,221,0.0,0.0,90,0.00,,,0.00,dv,2013-01-26 04:35:00,
2013-01-25 23:40:00,35.4,33.5,30.07,SW,221,3.2,3.2,90,0.00,,,0.00,dv,2013-01-26 04:40:00,
2013-01-25 23:45:00,35.6,33.7,30.07,SW,221,1.6,1.6,90,0.00,,,0.00,dv,2013-01-26 04:45:00,
2013-01-25 23:50:00,35.7,33.8,30.06,SW,235,4.8,4.8,90,0.01,,,0.01,dv,2013-01-26 04:50:00,
2013-01-25 23:55:00,35.9,34.0,30.07,West,272,4.8,4.8,90,0.01,,,0.01,dv,2013-01-26 04:55:00,